sensor_id;sensor_type;location;lat;lon;timestamp;temperature;humidity
65421;DHT22;52028;50.658;14.004;2022-12-18T00:00:47;-8.41;89.41
65421;DHT22;52028;50.658;14.004;2022-12-18T00:03:15;-8.38;89.75
65421;DHT22;52028;50.658;14.004;2022-12-18T00:05:48;-8.34;89.91
65421;DHT22;52028;50.658;14.004;2022-12-18T00:08:15;-8.31;89.54
65421;DHT22;52028;50.658;14.004;2022-12-18T00:10:41;-8.34;89.39
65421;DHT22;52028;50.658;14.004;2022-12-18T00:13:06;-8.29;89.33
65421;DHT22;52028;50.658;14.004;2022-12-18T00:15:34;-8.31;89.14
65421;DHT22;52028;50.658;14.004;2022-12-18T00:17:59;-8.30;89.09
65421;DHT22;52028;50.658;14.004;2022-12-18T00:20:25;-8.31;89.23
65421;DHT22;52028;50.658;14.004;2022-12-18T00:22:52;-8.24;89.92
65421;DHT22;52028;50.658;14.004;2022-12-18T00:25:17;-8.23;90.24
65421;DHT22;52028;50.658;14.004;2022-12-18T00:27:43;-8.40;90.12
65421;DHT22;52028;50.658;14.004;2022-12-18T00:30:09;-8.40;89.51
65421;DHT22;52028;50.658;14.004;2022-12-18T00:32:34;-8.38;89.84
65421;DHT22;52028;50.658;14.004;2022-12-18T00:34:59;-8.38;89.98
65421;DHT22;52028;50.658;14.004;2022-12-18T00:37:25;-8.40;89.46
65421;DHT22;52028;50.658;14.004;2022-12-18T00:39:50;-8.47;88.15
65421;DHT22;52028;50.658;14.004;2022-12-18T00:42:15;-8.21;87.28
65421;DHT22;52028;50.658;14.004;2022-12-18T00:44:59;-7.98;87.29
65421;DHT22;52028;50.658;14.004;2022-12-18T00:47:24;-8.01;87.16
65421;DHT22;52028;50.658;14.004;2022-12-18T00:49:50;-7.93;86.01
65421;DHT22;52028;50.658;14.004;2022-12-18T00:52:15;-7.92;85.60
65421;DHT22;52028;50.658;14.004;2022-12-18T00:54:40;-7.85;85.97
65421;DHT22;52028;50.658;14.004;2022-12-18T00:57:05;-7.74;86.78
65421;DHT22;52028;50.658;14.004;2022-12-18T00:59:31;-7.77;86.76
65421;DHT22;52028;50.658;14.004;2022-12-18T01:01:56;-7.75;86.84
65421;DHT22;52028;50.658;14.004;2022-12-18T01:04:21;-7.93;87.02
65421;DHT22;52028;50.658;14.004;2022-12-18T01:06:47;-7.86;87.67
65421;DHT22;52028;50.658;14.004;2022-12-18T01:09:12;-7.65;87.47
65421;DHT22;52028;50.658;14.004;2022-12-18T01:11:38;-7.44;87.33
65421;DHT22;52028;50.658;14.004;2022-12-18T01:14:03;-7.30;87.03
65421;DHT22;52028;50.658;14.004;2022-12-18T01:16:29;-7.19;87.38
65421;DHT22;52028;50.658;14.004;2022-12-18T01:18:54;-7.12;88.54
65421;DHT22;52028;50.658;14.004;2022-12-18T01:21:20;-7.08;88.58
65421;DHT22;52028;50.658;14.004;2022-12-18T01:23:46;-7.08;88.69
65421;DHT22;52028;50.658;14.004;2022-12-18T01:26:15;-6.91;88.90
65421;DHT22;52028;50.658;14.004;2022-12-18T01:28:41;-6.83;89.02
65421;DHT22;52028;50.658;14.004;2022-12-18T01:31:24;-6.88;89.16
65421;DHT22;52028;50.658;14.004;2022-12-18T01:33:51;-6.80;89.31
65421;DHT22;52028;50.658;14.004;2022-12-18T01:36:22;-6.67;89.25
65421;DHT22;52028;50.658;14.004;2022-12-18T01:38:48;-6.67;89.24
65421;DHT22;52028;50.658;14.004;2022-12-18T01:41:16;-6.73;89.75
65421;DHT22;52028;50.658;14.004;2022-12-18T01:44:46;-6.71;90.04
65421;DHT22;52028;50.658;14.004;2022-12-18T01:46:28;-6.61;89.79
65421;DHT22;52028;50.658;14.004;2022-12-18T01:48:57;-6.51;89.30
65421;DHT22;52028;50.658;14.004;2022-12-18T01:51:23;-6.67;89.32
65421;DHT22;52028;50.658;14.004;2022-12-18T01:53:48;-6.74;89.82
65421;DHT22;52028;50.658;14.004;2022-12-18T01:56:20;-6.68;89.92
65421;DHT22;52028;50.658;14.004;2022-12-18T01:58:58;-6.67;89.41
65421;DHT22;52028;50.658;14.004;2022-12-18T02:01:25;-6.66;89.06
65421;DHT22;52028;50.658;14.004;2022-12-18T02:03:51;-6.60;88.92
65421;DHT22;52028;50.658;14.004;2022-12-18T02:06:57;-6.59;88.81
65421;DHT22;52028;50.658;14.004;2022-12-18T02:09:24;-6.56;88.65
65421;DHT22;52028;50.658;14.004;2022-12-18T02:12:17;-6.54;88.65
65421;DHT22;52028;50.658;14.004;2022-12-18T02:15:05;-6.46;88.33
65421;DHT22;52028;50.658;14.004;2022-12-18T02:17:38;-6.36;87.80
65421;DHT22;52028;50.658;14.004;2022-12-18T02:20:16;-6.43;87.33
65421;DHT22;52028;50.658;14.004;2022-12-18T02:28:33;-6.29;86.82
65421;DHT22;52028;50.658;14.004;2022-12-18T02:31:01;-6.25;86.79
65421;DHT22;52028;50.658;14.004;2022-12-18T02:33:29;-6.32;86.73
65421;DHT22;52028;50.658;14.004;2022-12-18T02:35:56;-6.30;86.51
65421;DHT22;52028;50.658;14.004;2022-12-18T02:38:23;-6.32;86.58
65421;DHT22;52028;50.658;14.004;2022-12-18T02:40:49;-6.30;86.69
65421;DHT22;52028;50.658;14.004;2022-12-18T02:43:15;-6.34;86.59
65421;DHT22;52028;50.658;14.004;2022-12-18T02:45:55;-6.28;86.50
65421;DHT22;52028;50.658;14.004;2022-12-18T02:48:27;-6.25;86.33
65421;DHT22;52028;50.658;14.004;2022-12-18T02:51:11;-6.15;86.32
65421;DHT22;52028;50.658;14.004;2022-12-18T02:53:53;-6.04;86.08
65421;DHT22;52028;50.658;14.004;2022-12-18T02:56:45;-5.99;86.05
65421;DHT22;52028;50.658;14.004;2022-12-18T02:59:15;-6.02;86.00
65421;DHT22;52028;50.658;14.004;2022-12-18T03:02:33;-5.90;85.28
65421;DHT22;52028;50.658;14.004;2022-12-18T03:07:33;-5.86;84.50
65421;DHT22;52028;50.658;14.004;2022-12-18T03:10:00;-5.90;84.61
65421;DHT22;52028;50.658;14.004;2022-12-18T03:12:53;-5.83;84.30
65421;DHT22;52028;50.658;14.004;2022-12-18T03:15:24;-5.90;84.56
65421;DHT22;52028;50.658;14.004;2022-12-18T03:18:01;-6.01;84.57
65421;DHT22;52028;50.658;14.004;2022-12-18T03:20:30;-6.57;85.74
65421;DHT22;52028;50.658;14.004;2022-12-18T03:23:10;-6.77;86.54
65421;DHT22;52028;50.658;14.004;2022-12-18T03:25:40;-6.87;86.88
65421;DHT22;52028;50.658;14.004;2022-12-18T03:28:12;-6.71;86.45
65421;DHT22;52028;50.658;14.004;2022-12-18T03:30:38;-6.85;85.86
65421;DHT22;52028;50.658;14.004;2022-12-18T03:33:34;-6.89;85.94
65421;DHT22;52028;50.658;14.004;2022-12-18T03:36:02;-6.80;85.57
65421;DHT22;52028;50.658;14.004;2022-12-18T03:38:28;-6.87;86.63
65421;DHT22;52028;50.658;14.004;2022-12-18T03:43:51;-6.84;86.11
65421;DHT22;52028;50.658;14.004;2022-12-18T03:46:30;-6.74;86.51
65421;DHT22;52028;50.658;14.004;2022-12-18T03:49:10;-6.73;87.02
65421;DHT22;52028;50.658;14.004;2022-12-18T03:51:44;-6.68;86.98
65421;DHT22;52028;50.658;14.004;2022-12-18T03:54:12;-6.61;86.71
65421;DHT22;52028;50.658;14.004;2022-12-18T03:56:48;-6.53;86.52
65421;DHT22;52028;50.658;14.004;2022-12-18T03:59:15;-6.46;86.73
65421;DHT22;52028;50.658;14.004;2022-12-18T04:01:46;-6.33;86.20
65421;DHT22;52028;50.658;14.004;2022-12-18T04:04:13;-6.22;85.86
65421;DHT22;52028;50.658;14.004;2022-12-18T04:06:40;-6.22;85.53
65421;DHT22;52028;50.658;14.004;2022-12-18T04:09:06;-6.04;85.59
65421;DHT22;52028;50.658;14.004;2022-12-18T04:11:32;-6.05;85.44
65421;DHT22;52028;50.658;14.004;2022-12-18T04:13:58;-6.21;85.85
65421;DHT22;52028;50.658;14.004;2022-12-18T04:16:24;-6.40;86.70
65421;DHT22;52028;50.658;14.004;2022-12-18T04:18:50;-6.37;86.86
65421;DHT22;52028;50.658;14.004;2022-12-18T04:21:15;-6.26;86.54
65421;DHT22;52028;50.658;14.004;2022-12-18T04:23:40;-6.15;86.22
65421;DHT22;52028;50.658;14.004;2022-12-18T04:26:06;-6.12;85.96
65421;DHT22;52028;50.658;14.004;2022-12-18T04:28:31;-6.12;86.12
65421;DHT22;52028;50.658;14.004;2022-12-18T04:30:56;-5.93;85.73
65421;DHT22;52028;50.658;14.004;2022-12-18T04:33:22;-5.81;85.05
65421;DHT22;52028;50.658;14.004;2022-12-18T04:35:47;-6.05;85.28
65421;DHT22;52028;50.658;14.004;2022-12-18T04:38:13;-6.30;86.20
65421;DHT22;52028;50.658;14.004;2022-12-18T04:40:38;-5.94;85.91
65421;DHT22;52028;50.658;14.004;2022-12-18T04:43:04;-5.73;85.46
65421;DHT22;52028;50.658;14.004;2022-12-18T04:45:30;-5.55;84.86
65421;DHT22;52028;50.658;14.004;2022-12-18T04:47:59;-5.55;84.35
65421;DHT22;52028;50.658;14.004;2022-12-18T04:50:24;-5.36;84.06
65421;DHT22;52028;50.658;14.004;2022-12-18T04:52:49;-5.35;83.64
65421;DHT22;52028;50.658;14.004;2022-12-18T04:55:15;-5.33;83.39
65421;DHT22;52028;50.658;14.004;2022-12-18T04:57:40;-5.26;83.37
65421;DHT22;52028;50.658;14.004;2022-12-18T05:00:06;-5.29;83.49
65421;DHT22;52028;50.658;14.004;2022-12-18T05:02:32;-5.26;83.43
65421;DHT22;52028;50.658;14.004;2022-12-18T05:04:57;-5.18;83.47
65421;DHT22;52028;50.658;14.004;2022-12-18T05:07:22;-5.18;83.29
65421;DHT22;52028;50.658;14.004;2022-12-18T05:09:48;-5.14;83.24
65421;DHT22;52028;50.658;14.004;2022-12-18T05:12:13;-5.44;83.95
65421;DHT22;52028;50.658;14.004;2022-12-18T05:14:38;-5.22;83.76
65421;DHT22;52028;50.658;14.004;2022-12-18T05:17:03;-5.09;83.51
65421;DHT22;52028;50.658;14.004;2022-12-18T05:19:29;-5.00;83.10
65421;DHT22;52028;50.658;14.004;2022-12-18T05:21:54;-5.03;83.01
65421;DHT22;52028;50.658;14.004;2022-12-18T05:24:19;-5.14;83.29
65421;DHT22;52028;50.658;14.004;2022-12-18T05:26:45;-5.03;83.50
65421;DHT22;52028;50.658;14.004;2022-12-18T05:29:10;-5.14;83.06
65421;DHT22;52028;50.658;14.004;2022-12-18T05:31:38;-5.46;83.79
65421;DHT22;52028;50.658;14.004;2022-12-18T05:34:03;-5.58;83.60
65421;DHT22;52028;50.658;14.004;2022-12-18T05:36:29;-5.43;83.62
65421;DHT22;52028;50.658;14.004;2022-12-18T05:38:54;-5.24;83.36
65421;DHT22;52028;50.658;14.004;2022-12-18T05:41:19;-5.28;83.18
65421;DHT22;52028;50.658;14.004;2022-12-18T05:43:44;-5.05;82.63
65421;DHT22;52028;50.658;14.004;2022-12-18T05:46:15;-5.04;82.36
65421;DHT22;52028;50.658;14.004;2022-12-18T05:48:43;-4.84;81.91
65421;DHT22;52028;50.658;14.004;2022-12-18T05:51:12;-4.93;81.53
65421;DHT22;52028;50.658;14.004;2022-12-18T05:53:38;-5.31;82.70
65421;DHT22;52028;50.658;14.004;2022-12-18T05:56:06;-5.11;82.93
65421;DHT22;52028;50.658;14.004;2022-12-18T05:58:32;-4.90;82.04
65421;DHT22;52028;50.658;14.004;2022-12-18T06:00:58;-4.72;81.44
65421;DHT22;52028;50.658;14.004;2022-12-18T06:03:30;-4.56;80.96
65421;DHT22;52028;50.658;14.004;2022-12-18T06:05:55;-4.79;80.78
65421;DHT22;52028;50.658;14.004;2022-12-18T06:08:21;-4.62;80.97
65421;DHT22;52028;50.658;14.004;2022-12-18T06:10:50;-5.01;81.76
65421;DHT22;52028;50.658;14.004;2022-12-18T06:13:16;-5.14;82.69
65421;DHT22;52028;50.658;14.004;2022-12-18T06:15:41;-4.90;82.49
65421;DHT22;52028;50.658;14.004;2022-12-18T06:18:07;-4.63;81.88
65421;DHT22;52028;50.658;14.004;2022-12-18T06:20:32;-4.48;81.43
65421;DHT22;52028;50.658;14.004;2022-12-18T06:22:57;-4.45;81.01
65421;DHT22;52028;50.658;14.004;2022-12-18T06:25:23;-4.44;81.09
65421;DHT22;52028;50.658;14.004;2022-12-18T06:27:48;-4.44;81.12
65421;DHT22;52028;50.658;14.004;2022-12-18T06:30:14;-4.31;81.06
65421;DHT22;52028;50.658;14.004;2022-12-18T06:32:39;-4.69;81.39
65421;DHT22;52028;50.658;14.004;2022-12-18T06:35:05;-4.46;81.75
65421;DHT22;52028;50.658;14.004;2022-12-18T06:37:31;-4.41;81.37
65421;DHT22;52028;50.658;14.004;2022-12-18T06:39:56;-4.34;81.08
65421;DHT22;52028;50.658;14.004;2022-12-18T06:42:22;-4.22;80.74
65421;DHT22;52028;50.658;14.004;2022-12-18T06:44:47;-4.24;80.67
65421;DHT22;52028;50.658;14.004;2022-12-18T06:47:12;-4.19;80.70
65421;DHT22;52028;50.658;14.004;2022-12-18T06:49:38;-4.36;80.69
65421;DHT22;52028;50.658;14.004;2022-12-18T06:52:03;-4.34;81.20
65421;DHT22;52028;50.658;14.004;2022-12-18T06:54:28;-4.24;80.91
65421;DHT22;52028;50.658;14.004;2022-12-18T06:56:57;-4.17;80.75
65421;DHT22;52028;50.658;14.004;2022-12-18T06:59:22;-4.19;80.74
65421;DHT22;52028;50.658;14.004;2022-12-18T07:01:47;-4.15;80.74
65421;DHT22;52028;50.658;14.004;2022-12-18T07:04:13;-4.08;80.62
65421;DHT22;52028;50.658;14.004;2022-12-18T07:06:38;-4.15;80.77
65421;DHT22;52028;50.658;14.004;2022-12-18T07:09:03;-4.11;80.74
65421;DHT22;52028;50.658;14.004;2022-12-18T07:11:29;-4.10;80.77
65421;DHT22;52028;50.658;14.004;2022-12-18T07:13:54;-4.04;80.64
65421;DHT22;52028;50.658;14.004;2022-12-18T07:16:21;-3.91;80.38
65421;DHT22;52028;50.658;14.004;2022-12-18T07:18:46;-3.93;80.16
65421;DHT22;52028;50.658;14.004;2022-12-18T07:21:15;-4.06;80.66
65421;DHT22;52028;50.658;14.004;2022-12-18T07:23:41;-3.87;80.40
65421;DHT22;52028;50.658;14.004;2022-12-18T07:26:11;-3.79;80.10
65421;DHT22;52028;50.658;14.004;2022-12-18T07:28:38;-3.93;80.51
65421;DHT22;52028;50.658;14.004;2022-12-18T07:31:05;-3.97;80.68
65421;DHT22;52028;50.658;14.004;2022-12-18T07:33:32;-3.93;80.20
65421;DHT22;52028;50.658;14.004;2022-12-18T07:35:59;-3.85;80.25
65421;DHT22;52028;50.658;14.004;2022-12-18T07:38:24;-3.86;80.19
65421;DHT22;52028;50.658;14.004;2022-12-18T07:40:49;-3.91;80.46
65421;DHT22;52028;50.658;14.004;2022-12-18T07:43:15;-3.76;80.36
65421;DHT22;52028;50.658;14.004;2022-12-18T07:45:42;-3.62;80.03
65421;DHT22;52028;50.658;14.004;2022-12-18T07:48:07;-3.54;79.65
65421;DHT22;52028;50.658;14.004;2022-12-18T07:50:32;-3.68;79.43
65421;DHT22;52028;50.658;14.004;2022-12-18T07:52:58;-3.75;80.29
65421;DHT22;52028;50.658;14.004;2022-12-18T07:55:23;-3.73;80.57
65421;DHT22;52028;50.658;14.004;2022-12-18T07:57:48;-3.58;80.20
65421;DHT22;52028;50.658;14.004;2022-12-18T08:00:14;-3.47;80.02
65421;DHT22;52028;50.658;14.004;2022-12-18T08:02:39;-3.52;79.82
65421;DHT22;52028;50.658;14.004;2022-12-18T08:05:05;-3.47;79.92
65421;DHT22;52028;50.658;14.004;2022-12-18T08:07:30;-3.52;79.93
65421;DHT22;52028;50.658;14.004;2022-12-18T08:09:55;-3.85;80.87
65421;DHT22;52028;50.658;14.004;2022-12-18T08:12:21;-3.75;80.87
65421;DHT22;52028;50.658;14.004;2022-12-18T08:14:46;-3.51;80.64
65421;DHT22;52028;50.658;14.004;2022-12-18T08:17:11;-3.48;80.35
65421;DHT22;52028;50.658;14.004;2022-12-18T08:19:36;-3.28;80.19
65421;DHT22;52028;50.658;14.004;2022-12-18T08:22:02;-3.17;79.71
65421;DHT22;52028;50.658;14.004;2022-12-18T08:24:27;-3.10;79.74
65421;DHT22;52028;50.658;14.004;2022-12-18T08:26:53;-3.08;79.73
65421;DHT22;52028;50.658;14.004;2022-12-18T08:29:18;-3.14;79.95
65421;DHT22;52028;50.658;14.004;2022-12-18T08:31:43;-3.21;80.07
65421;DHT22;52028;50.658;14.004;2022-12-18T08:34:09;-3.30;80.93
65421;DHT22;52028;50.658;14.004;2022-12-18T08:36:34;-3.16;80.84
65421;DHT22;52028;50.658;14.004;2022-12-18T08:39:00;-3.21;80.88
65421;DHT22;52028;50.658;14.004;2022-12-18T08:41:25;-3.11;81.08
65421;DHT22;52028;50.658;14.004;2022-12-18T08:43:50;-3.03;80.88
65421;DHT22;52028;50.658;14.004;2022-12-18T08:46:40;-2.95;80.44
65421;DHT22;52028;50.658;14.004;2022-12-18T08:49:07;-2.83;80.24
65421;DHT22;52028;50.658;14.004;2022-12-18T08:51:33;-2.89;80.22
65421;DHT22;52028;50.658;14.004;2022-12-18T08:53:59;-2.78;80.07
65421;DHT22;52028;50.658;14.004;2022-12-18T08:56:25;-2.72;79.67
65421;DHT22;52028;50.658;14.004;2022-12-18T08:58:54;-2.66;79.42
65421;DHT22;52028;50.658;14.004;2022-12-18T09:01:20;-2.65;79.45
65421;DHT22;52028;50.658;14.004;2022-12-18T09:03:45;-2.68;79.55
65421;DHT22;52028;50.658;14.004;2022-12-18T09:06:14;-2.60;79.57
65421;DHT22;52028;50.658;14.004;2022-12-18T09:08:40;-2.55;79.42
65421;DHT22;52028;50.658;14.004;2022-12-18T09:11:12;-2.85;79.76
65421;DHT22;52028;50.658;14.004;2022-12-18T09:13:38;-2.95;80.87
65421;DHT22;52028;50.658;14.004;2022-12-18T09:16:04;-3.10;81.79
65421;DHT22;52028;50.658;14.004;2022-12-18T09:18:29;-2.97;81.85
65421;DHT22;52028;50.658;14.004;2022-12-18T09:20:54;-2.82;81.45
65421;DHT22;52028;50.658;14.004;2022-12-18T09:23:20;-2.85;81.43
65421;DHT22;52028;50.658;14.004;2022-12-18T09:25:46;-2.76;81.62
65421;DHT22;52028;50.658;14.004;2022-12-18T09:28:16;-2.72;81.33
65421;DHT22;52028;50.658;14.004;2022-12-18T09:30:44;-2.93;81.03
65421;DHT22;52028;50.658;14.004;2022-12-18T09:33:10;-2.85;81.80
65421;DHT22;52028;50.658;14.004;2022-12-18T09:35:42;-3.04;81.76
65421;DHT22;52028;50.658;14.004;2022-12-18T09:38:11;-3.06;82.05
65421;DHT22;52028;50.658;14.004;2022-12-18T09:40:42;-3.20;82.62
65421;DHT22;52028;50.658;14.004;2022-12-18T09:43:14;-3.23;82.32
65421;DHT22;52028;50.658;14.004;2022-12-18T09:45:44;-3.25;82.25
65421;DHT22;52028;50.658;14.004;2022-12-18T09:48:33;-3.18;82.65
65421;DHT22;52028;50.658;14.004;2022-12-18T09:51:15;-3.27;83.08
65421;DHT22;52028;50.658;14.004;2022-12-18T09:53:44;-3.31;83.07
65421;DHT22;52028;50.658;14.004;2022-12-18T09:56:19;-3.27;82.83
65421;DHT22;52028;50.658;14.004;2022-12-18T09:59:00;-3.33;82.88
65421;DHT22;52028;50.658;14.004;2022-12-18T10:01:27;-3.33;82.72
65421;DHT22;52028;50.658;14.004;2022-12-18T10:03:53;-3.35;83.00
65421;DHT22;52028;50.658;14.004;2022-12-18T10:09:28;-3.41;83.93
65421;DHT22;52028;50.658;14.004;2022-12-18T10:12:09;-3.30;83.44
65421;DHT22;52028;50.658;14.004;2022-12-18T10:17:51;-3.58;83.80
65421;DHT22;52028;50.658;14.004;2022-12-18T10:28:13;-3.38;83.52
65421;DHT22;52028;50.658;14.004;2022-12-18T10:30:41;-3.27;83.48
65421;DHT22;52028;50.658;14.004;2022-12-18T10:33:20;-3.18;82.90
65421;DHT22;52028;50.658;14.004;2022-12-18T10:35:48;-3.13;82.65
65421;DHT22;52028;50.658;14.004;2022-12-18T10:40:58;-3.00;82.12
65421;DHT22;52028;50.658;14.004;2022-12-18T10:43:29;-3.16;82.17
65421;DHT22;52028;50.658;14.004;2022-12-18T10:51:02;-3.24;82.85
65421;DHT22;52028;50.658;14.004;2022-12-18T10:53:30;-3.13;82.36
65421;DHT22;52028;50.658;14.004;2022-12-18T10:56:07;-3.14;82.35
65421;DHT22;52028;50.658;14.004;2022-12-18T10:58:35;-3.17;82.69
65421;DHT22;52028;50.658;14.004;2022-12-18T11:01:16;-3.47;83.04
65421;DHT22;52028;50.658;14.004;2022-12-18T11:03:46;-3.40;83.41
65421;DHT22;52028;50.658;14.004;2022-12-18T11:06:19;-3.30;83.63
65421;DHT22;52028;50.658;14.004;2022-12-18T11:11:24;-2.96;81.49
65421;DHT22;52028;50.658;14.004;2022-12-18T11:14:03;-2.96;80.31
65421;DHT22;52028;50.658;14.004;2022-12-18T11:16:35;-3.20;81.66
65421;DHT22;52028;50.658;14.004;2022-12-18T11:21:49;-3.52;83.81
65421;DHT22;52028;50.658;14.004;2022-12-18T11:24:35;-3.27;83.42
65421;DHT22;52028;50.658;14.004;2022-12-18T11:27:05;-3.28;83.33
65421;DHT22;52028;50.658;14.004;2022-12-18T11:29:34;-3.11;82.91
65421;DHT22;52028;50.658;14.004;2022-12-18T11:34:44;-3.21;82.59
65421;DHT22;52028;50.658;14.004;2022-12-18T11:37:12;-3.24;83.05
65421;DHT22;52028;50.658;14.004;2022-12-18T11:40:06;-3.41;83.54
65421;DHT22;52028;50.658;14.004;2022-12-18T11:45:30;-3.18;82.75
65421;DHT22;52028;50.658;14.004;2022-12-18T11:47:58;-3.14;82.17
65421;DHT22;52028;50.658;14.004;2022-12-18T11:50:42;-3.04;81.88
65421;DHT22;52028;50.658;14.004;2022-12-18T11:53:11;-3.21;81.93
65421;DHT22;52028;50.658;14.004;2022-12-18T11:58:45;-3.18;82.30
65421;DHT22;52028;50.658;14.004;2022-12-18T12:01:50;-3.16;81.87
65421;DHT22;52028;50.658;14.004;2022-12-18T12:05:10;-3.04;82.15
65421;DHT22;52028;50.658;14.004;2022-12-18T12:07:48;-2.86;81.39
65421;DHT22;52028;50.658;14.004;2022-12-18T12:13:52;-2.92;80.78
65421;DHT22;52028;50.658;14.004;2022-12-18T12:30:20;-3.13;81.61
65421;DHT22;52028;50.658;14.004;2022-12-18T12:33:05;-3.24;82.37
65421;DHT22;52028;50.658;14.004;2022-12-18T12:38:35;-3.28;82.53
65421;DHT22;52028;50.658;14.004;2022-12-18T12:41:04;-3.04;82.22
65421;DHT22;52028;50.658;14.004;2022-12-18T12:46:10;-3.34;82.62
65421;DHT22;52028;50.658;14.004;2022-12-18T12:48:46;-3.23;82.48
65421;DHT22;52028;50.658;14.004;2022-12-18T12:51:34;-3.38;82.83
65421;DHT22;52028;50.658;14.004;2022-12-18T12:54:03;-3.34;82.82
65421;DHT22;52028;50.658;14.004;2022-12-18T12:56:50;-3.28;82.78
65421;DHT22;52028;50.658;14.004;2022-12-18T13:02:52;-3.25;82.97
65421;DHT22;52028;50.658;14.004;2022-12-18T13:05:16;-3.11;82.70
65421;DHT22;52028;50.658;14.004;2022-12-18T13:07:54;-3.11;82.55
65421;DHT22;52028;50.658;14.004;2022-12-18T13:10:30;-2.93;82.18
65421;DHT22;52028;50.658;14.004;2022-12-18T13:15:37;-3.21;82.56
65421;DHT22;52028;50.658;14.004;2022-12-18T13:20:35;-2.95;82.13
65421;DHT22;52028;50.658;14.004;2022-12-18T13:31:15;-3.10;81.75
65421;DHT22;52028;50.658;14.004;2022-12-18T13:33:45;-3.13;82.39
65421;DHT22;52028;50.658;14.004;2022-12-18T13:36:31;-3.10;82.28
65421;DHT22;52028;50.658;14.004;2022-12-18T13:41:50;-3.01;81.80
65421;DHT22;52028;50.658;14.004;2022-12-18T13:46:49;-2.95;82.05
65421;DHT22;52028;50.658;14.004;2022-12-18T13:52:01;-3.11;82.59
65421;DHT22;52028;50.658;14.004;2022-12-18T13:54:40;-3.18;82.98
65421;DHT22;52028;50.658;14.004;2022-12-18T13:57:29;-3.03;82.13
65421;DHT22;52028;50.658;14.004;2022-12-18T13:59:55;-2.96;81.50
65421;DHT22;52028;50.658;14.004;2022-12-18T14:02:23;-3.04;81.30
65421;DHT22;52028;50.658;14.004;2022-12-18T14:04:50;-3.07;81.27
65421;DHT22;52028;50.658;14.004;2022-12-18T14:07:20;-3.14;81.70
65421;DHT22;52028;50.658;14.004;2022-12-18T14:09:54;-3.18;81.72
65421;DHT22;52028;50.658;14.004;2022-12-18T14:12:24;-3.20;82.18
65421;DHT22;52028;50.658;14.004;2022-12-18T14:17:39;-3.11;81.70
65421;DHT22;52028;50.658;14.004;2022-12-18T14:20:13;-3.13;81.86
65421;DHT22;52028;50.658;14.004;2022-12-18T14:22:43;-3.07;82.03
65421;DHT22;52028;50.658;14.004;2022-12-18T14:27:43;-3.16;81.94
65421;DHT22;52028;50.658;14.004;2022-12-18T14:35:32;-3.08;82.32
65421;DHT22;52028;50.658;14.004;2022-12-18T14:40:41;-2.96;81.94
65421;DHT22;52028;50.658;14.004;2022-12-18T14:43:10;-2.97;81.93
65421;DHT22;52028;50.658;14.004;2022-12-18T14:45:43;-3.06;82.00
65421;DHT22;52028;50.658;14.004;2022-12-18T14:50:45;-3.41;82.64
65421;DHT22;52028;50.658;14.004;2022-12-18T14:53:28;-3.54;83.92
65421;DHT22;52028;50.658;14.004;2022-12-18T14:55:56;-3.54;84.02
65421;DHT22;52028;50.658;14.004;2022-12-18T14:58:22;-3.59;83.69
65421;DHT22;52028;50.658;14.004;2022-12-18T15:00:47;-3.66;84.39
65421;DHT22;52028;50.658;14.004;2022-12-18T15:03:18;-3.56;84.65
65421;DHT22;52028;50.658;14.004;2022-12-18T15:05:44;-3.37;84.11
65421;DHT22;52028;50.658;14.004;2022-12-18T15:08:36;-3.23;83.60
65421;DHT22;52028;50.658;14.004;2022-12-18T15:11:02;-3.25;83.14
65421;DHT22;52028;50.658;14.004;2022-12-18T15:13:28;-3.23;82.90
65421;DHT22;52028;50.658;14.004;2022-12-18T15:15:56;-3.17;83.05
65421;DHT22;52028;50.658;14.004;2022-12-18T15:18:30;-3.06;82.63
65421;DHT22;52028;50.658;14.004;2022-12-18T15:20:59;-3.17;82.75
65421;DHT22;52028;50.658;14.004;2022-12-18T15:23:35;-3.20;82.76
65421;DHT22;52028;50.658;14.004;2022-12-18T15:33:39;-3.73;84.79
65421;DHT22;52028;50.658;14.004;2022-12-18T15:36:15;-3.62;84.47
65421;DHT22;52028;50.658;14.004;2022-12-18T15:38:41;-3.65;84.56
65421;DHT22;52028;50.658;14.004;2022-12-18T15:41:17;-3.69;84.52
65421;DHT22;52028;50.658;14.004;2022-12-18T15:43:44;-3.70;84.65
65421;DHT22;52028;50.658;14.004;2022-12-18T15:46:17;-3.72;84.54
65421;DHT22;52028;50.658;14.004;2022-12-18T15:48:50;-3.68;85.06
65421;DHT22;52028;50.658;14.004;2022-12-18T15:53:43;-3.44;84.21
65421;DHT22;52028;50.658;14.004;2022-12-18T15:56:12;-3.48;84.01
65421;DHT22;52028;50.658;14.004;2022-12-18T15:58:56;-3.35;83.76
65421;DHT22;52028;50.658;14.004;2022-12-18T16:01:31;-3.58;83.85
65421;DHT22;52028;50.658;14.004;2022-12-18T16:03:56;-3.50;84.20
65421;DHT22;52028;50.658;14.004;2022-12-18T16:06:22;-3.28;83.67
65421;DHT22;52028;50.658;14.004;2022-12-18T16:08:48;-3.18;83.23
65421;DHT22;52028;50.658;14.004;2022-12-18T16:11:24;-3.18;82.63
65421;DHT22;52028;50.658;14.004;2022-12-18T16:14:23;-3.30;83.32
65421;DHT22;52028;50.658;14.004;2022-12-18T16:16:53;-3.45;83.78
65421;DHT22;52028;50.658;14.004;2022-12-18T16:19:18;-3.47;84.00
65421;DHT22;52028;50.658;14.004;2022-12-18T16:21:45;-3.62;84.60
65421;DHT22;52028;50.658;14.004;2022-12-18T16:24:25;-3.68;85.18
65421;DHT22;52028;50.658;14.004;2022-12-18T16:26:51;-3.61;84.75
65421;DHT22;52028;50.658;14.004;2022-12-18T16:29:17;-3.65;84.93
65421;DHT22;52028;50.658;14.004;2022-12-18T16:31:43;-3.73;85.43
65421;DHT22;52028;50.658;14.004;2022-12-18T16:34:19;-3.75;84.90
65421;DHT22;52028;50.658;14.004;2022-12-18T16:36:48;-3.90;85.66
65421;DHT22;52028;50.658;14.004;2022-12-18T16:39:13;-3.76;85.70
65421;DHT22;52028;50.658;14.004;2022-12-18T16:41:38;-3.59;85.24
65421;DHT22;52028;50.658;14.004;2022-12-18T16:44:04;-3.65;84.67
65421;DHT22;52028;50.658;14.004;2022-12-18T16:46:29;-3.78;84.50
65421;DHT22;52028;50.658;14.004;2022-12-18T16:48:57;-3.89;84.69
65421;DHT22;52028;50.658;14.004;2022-12-18T16:51:22;-4.15;85.58
65421;DHT22;52028;50.658;14.004;2022-12-18T16:53:48;-4.06;85.93
65421;DHT22;52028;50.658;14.004;2022-12-18T16:56:13;-3.98;85.72
65421;DHT22;52028;50.658;14.004;2022-12-18T16:58:38;-3.89;85.44
65421;DHT22;52028;50.658;14.004;2022-12-18T17:01:08;-3.83;84.86
65421;DHT22;52028;50.658;14.004;2022-12-18T17:03:33;-3.93;85.27
65421;DHT22;52028;50.658;14.004;2022-12-18T17:06:05;-3.89;85.13
65421;DHT22;52028;50.658;14.004;2022-12-18T17:08:31;-3.93;85.18
65421;DHT22;52028;50.658;14.004;2022-12-18T17:11:05;-3.97;85.51
65421;DHT22;52028;50.658;14.004;2022-12-18T17:13:31;-3.98;85.53
65421;DHT22;52028;50.658;14.004;2022-12-18T17:16:04;-3.97;85.65
65421;DHT22;52028;50.658;14.004;2022-12-18T17:18:30;-4.14;85.91
65421;DHT22;52028;50.658;14.004;2022-12-18T17:21:00;-4.07;86.25
65421;DHT22;52028;50.658;14.004;2022-12-18T17:23:27;-4.19;86.73
65421;DHT22;52028;50.658;14.004;2022-12-18T17:25:54;-4.13;86.80
65421;DHT22;52028;50.658;14.004;2022-12-18T17:28:20;-4.06;86.18
65421;DHT22;52028;50.658;14.004;2022-12-18T17:30:46;-4.21;86.42